createdAt,value
2023-10-05T00:17:40.897Z,2.58
2023-10-05T00:20:15.232Z,2.70
2023-10-05T00:22:42.010Z,2.28
2023-10-05T00:25:11.457Z,2.40
2023-10-05T00:27:38.685Z,2.40
2023-10-05T00:45:59.712Z,2.17
2023-10-05T00:49:05.182Z,2.30
2023-10-05T00:51:35.344Z,2.15
2023-10-05T00:54:10.568Z,2.30
2023-10-05T00:56:39.982Z,2.50
2023-10-05T00:59:08.096Z,2.42
2023-10-05T01:16:50.066Z,2.40
2023-10-05T01:19:18.641Z,2.30
2023-10-05T01:21:45.284Z,2.10
2023-10-05T01:24:14.548Z,2.20
2023-10-05T01:26:42.190Z,2.08
2023-10-05T01:29:08.847Z,2.35
2023-10-05T01:46:50.182Z,1.90
2023-10-05T01:49:18.142Z,2.30
2023-10-05T01:51:44.958Z,2.53
2023-10-05T01:54:17.825Z,1.98
2023-10-05T01:56:45.985Z,2.00
2023-10-05T01:59:14.202Z,2.28
2023-10-05T02:17:10.760Z,2.23
2023-10-05T02:19:42.342Z,2.33
2023-10-05T02:22:12.641Z,2.03
2023-10-05T02:24:42.594Z,2.10
2023-10-05T02:27:13.203Z,1.80
2023-10-05T02:29:44.542Z,1.90
2023-10-05T02:46:48.471Z,1.98
2023-10-05T02:49:25.309Z,1.90
2023-10-05T02:51:55.863Z,2.00
2023-10-05T02:54:25.940Z,1.90
2023-10-05T02:56:55.432Z,2.00
2023-10-05T02:59:27.631Z,2.15
2023-10-05T03:16:32.515Z,1.80
2023-10-05T03:19:01.655Z,2.17
2023-10-05T03:21:29.219Z,1.88
2023-10-05T03:23:55.833Z,1.80
2023-10-05T03:26:22.613Z,1.98
2023-10-05T03:28:50.176Z,1.70
2023-10-05T03:45:58.962Z,1.77
2023-10-05T03:48:27.981Z,1.90
2023-10-05T03:50:55.768Z,1.97
2023-10-05T03:53:22.495Z,2.10
2023-10-05T03:55:49.988Z,2.00
2023-10-05T03:58:20.132Z,2.20
2023-10-05T04:18:17.385Z,1.80
2023-10-05T04:28:53.285Z,2.20
2023-10-05T04:48:56.298Z,1.90
2023-10-05T04:51:24.430Z,2.25
2023-10-05T04:53:55.313Z,2.30
2023-10-05T04:56:40.275Z,1.67
2023-10-05T04:59:12.289Z,1.88
2023-10-05T05:01:59.475Z,1.97
2023-10-05T05:04:36.120Z,2.28
2023-10-05T05:07:08.724Z,2.20
2023-10-05T05:09:39.566Z,1.95
2023-10-05T05:12:17.204Z,2.30
2023-10-05T05:14:51.346Z,2.10
2023-10-05T05:17:20.647Z,2.17
2023-10-05T05:19:48.046Z,2.20
2023-10-05T05:22:15.586Z,1.98
2023-10-05T05:24:42.565Z,1.83
2023-10-05T05:27:20.981Z,2.17
2023-10-05T05:29:48.736Z,1.70
2023-10-05T05:32:15.611Z,2.20
2023-10-05T05:34:44.400Z,1.90
2023-10-05T05:37:29.559Z,2.10
2023-10-05T05:39:58.892Z,2.20
2023-10-05T05:42:31.070Z,2.13
2023-10-05T05:44:57.772Z,2.10
2023-10-05T05:47:24.533Z,2.20
2023-10-05T05:49:51.648Z,1.95
2023-10-05T05:52:18.841Z,2.00
2023-10-05T05:54:48.720Z,1.60
2023-10-05T05:57:21.903Z,1.92
2023-10-05T05:59:48.729Z,2.17
2023-10-05T06:02:15.594Z,1.90
2023-10-05T06:04:43.002Z,2.10
2023-10-05T06:07:14.386Z,2.08
2023-10-05T06:09:47.993Z,2.00
2023-10-05T06:12:16.517Z,2.38
2023-10-05T06:14:43.904Z,2.22
2023-10-05T06:17:11.709Z,2.13
2023-10-05T06:19:38.772Z,1.98
2023-10-05T06:22:09.104Z,2.20
2023-10-05T06:24:43.448Z,2.35
2023-10-05T06:27:10.389Z,1.95
2023-10-05T06:29:37.251Z,2.00
2023-10-05T06:32:05.942Z,2.15
2023-10-05T06:34:32.863Z,1.90
2023-10-05T06:36:59.659Z,2.10
2023-10-05T06:39:28.725Z,2.22
2023-10-05T06:41:55.875Z,2.20
2023-10-05T06:44:25.815Z,1.90
2023-10-05T06:46:54.598Z,1.95
2023-10-05T06:49:23.985Z,1.70
2023-10-05T06:51:51.043Z,2.13
2023-10-05T06:54:18.739Z,2.30
2023-10-05T06:56:50.680Z,1.90
2023-10-05T06:59:17.555Z,1.77
2023-10-05T07:01:44.329Z,1.98
2023-10-05T07:04:13.466Z,1.60
2023-10-05T07:06:40.586Z,1.80
2023-10-05T07:09:07.517Z,1.70
2023-10-05T07:11:34.489Z,1.90
2023-10-05T07:14:01.581Z,1.80
2023-10-05T07:16:30.386Z,1.70
2023-10-05T07:18:57.238Z,2.10
2023-10-05T07:21:24.469Z,2.13
2023-10-05T07:23:51.116Z,1.90
2023-10-05T07:26:17.934Z,1.70
2023-10-05T07:28:45.047Z,1.60
2023-10-05T07:31:12.204Z,1.60
2023-10-05T07:33:39.227Z,2.10
2023-10-05T07:36:06.706Z,1.73
2023-10-05T07:38:33.831Z,1.80
2023-10-05T07:41:04.161Z,1.60
2023-10-05T07:43:33.176Z,1.60
2023-10-05T07:46:02.018Z,1.70
2023-10-05T07:48:29.468Z,1.60
2023-10-05T07:50:56.727Z,1.73
2023-10-05T07:53:23.752Z,1.98
2023-10-05T07:55:51.418Z,1.80
2023-10-05T07:58:18.380Z,1.77
2023-10-05T08:00:46.946Z,1.40
2023-10-05T08:03:16.101Z,1.90
2023-10-05T08:05:42.954Z,1.90
2023-10-05T08:08:11.627Z,1.90
2023-10-05T08:10:40.042Z,2.15
2023-10-05T08:13:07.192Z,1.50
2023-10-05T08:15:35.778Z,1.80
2023-10-05T08:18:03.049Z,1.80
2023-10-05T08:20:30.527Z,1.70
2023-10-05T08:22:58.166Z,1.90
2023-10-05T08:25:26.010Z,1.60
2023-10-05T08:27:53.649Z,1.60
2023-10-05T08:30:20.736Z,1.83
2023-10-05T08:32:49.787Z,1.47
2023-10-05T08:35:20.043Z,1.70
2023-10-05T08:37:54.663Z,1.70
2023-10-05T08:40:36.965Z,1.65
2023-10-05T08:43:17.699Z,1.70
2023-10-05T08:45:48.061Z,1.50
2023-10-05T08:48:36.842Z,1.40
2023-10-05T08:51:13.538Z,1.90
2023-10-05T08:53:50.039Z,1.50
2023-10-05T08:56:18.096Z,1.30
2023-10-05T08:58:49.884Z,1.53
2023-10-05T09:01:25.063Z,1.60
2023-10-05T09:03:56.800Z,1.80
2023-10-05T09:06:25.540Z,1.50
2023-10-05T09:08:54.518Z,1.80
2023-10-05T09:11:32.810Z,1.90
2023-10-05T09:14:14.917Z,1.60
2023-10-05T09:16:43.652Z,1.52
2023-10-05T09:19:24.384Z,1.77
2023-10-05T09:21:52.210Z,1.40
2023-10-05T09:24:23.403Z,1.70
2023-10-05T09:26:58.246Z,1.67
2023-10-05T09:29:34.173Z,1.80
2023-10-05T09:32:01.117Z,1.75
2023-10-05T09:34:50.873Z,1.60
2023-10-05T09:37:19.792Z,1.83
2023-10-05T09:39:56.029Z,1.70
2023-10-05T09:42:26.496Z,1.70
2023-10-05T09:45:08.021Z,1.52
2023-10-05T09:47:36.948Z,1.70
2023-10-05T09:50:11.293Z,1.50
2023-10-05T09:52:44.373Z,1.40
2023-10-05T09:55:14.566Z,1.60
2023-10-05T09:57:42.920Z,1.60
2023-10-05T10:00:31.012Z,1.90
2023-10-05T10:03:01.310Z,1.47
2023-10-05T10:05:37.402Z,1.65
2023-10-05T10:08:13.980Z,1.67
2023-10-05T10:11:03.225Z,1.48
2023-10-05T10:13:38.257Z,1.60
2023-10-05T10:16:24.437Z,1.60
2023-10-05T10:19:05.461Z,1.52
2023-10-05T10:21:47.392Z,1.60
2023-10-05T10:24:21.420Z,1.58
2023-10-05T10:27:18.855Z,1.60
2023-10-05T10:29:48.416Z,1.30
2023-10-05T10:32:23.597Z,1.70
2023-10-05T10:35:10.892Z,1.70
2023-10-05T10:37:41.103Z,1.50
2023-10-05T10:40:21.485Z,1.40
2023-10-05T10:42:56.228Z,1.40
2023-10-05T10:45:29.579Z,1.48
2023-10-05T10:47:57.800Z,1.50
2023-10-05T10:50:30.190Z,1.48
2023-10-05T10:52:57.929Z,1.60
2023-10-05T10:55:34.003Z,1.57
2023-10-05T10:58:05.760Z,1.50
2023-10-05T11:00:41.744Z,1.42
2023-10-05T11:03:13.708Z,1.50
2023-10-05T11:05:42.010Z,1.70
2023-10-05T11:08:10.887Z,1.53
2023-10-05T11:10:38.366Z,1.75
2023-10-05T11:13:15.594Z,1.55
2023-10-05T11:15:59.957Z,1.73
2023-10-05T11:18:42.296Z,1.83
2023-10-05T11:21:18.109Z,1.57
2023-10-05T11:23:45.710Z,1.60
2023-10-05T11:26:19.359Z,2.00
2023-10-05T11:28:54.263Z,1.60
2023-10-05T11:31:48.078Z,1.60
2023-10-05T11:35:12.849Z,1.47
2023-10-05T11:37:13.317Z,1.73
2023-10-05T11:39:41.173Z,1.70
2023-10-05T11:42:12.081Z,1.75
2023-10-05T11:44:43.158Z,1.65
2023-10-05T11:47:24.173Z,1.60
2023-10-05T11:49:51.986Z,1.48
2023-10-05T11:52:18.881Z,1.92
2023-10-05T11:54:45.804Z,1.60
2023-10-05T11:57:12.545Z,1.88
2023-10-05T11:59:40.211Z,2.27
2023-10-05T12:02:10.066Z,2.00
2023-10-05T12:04:41.083Z,2.03
2023-10-05T12:07:09.389Z,1.98
2023-10-05T12:09:37.800Z,1.63
2023-10-05T12:12:04.870Z,1.60
2023-10-05T12:14:31.611Z,1.92
2023-10-05T12:16:58.658Z,1.98
2023-10-05T12:19:34.556Z,2.08
2023-10-05T12:22:07.399Z,1.98
2023-10-05T12:24:36.732Z,2.40
2023-10-05T12:27:14.407Z,2.10
2023-10-05T12:29:43.775Z,2.22
2023-10-05T12:32:14.693Z,1.80
2023-10-05T12:34:49.215Z,2.13
2023-10-05T12:37:19.050Z,1.83
2023-10-05T12:39:48.971Z,2.00
2023-10-05T12:42:15.721Z,2.30
2023-10-05T12:44:42.528Z,2.25
2023-10-05T12:47:09.635Z,2.35
2023-10-05T12:49:36.658Z,2.53
2023-10-05T12:52:03.652Z,1.85
2023-10-05T12:54:30.485Z,2.05
2023-10-05T12:57:13.610Z,2.38
2023-10-05T12:59:45.170Z,2.60
2023-10-05T13:02:18.158Z,2.83
2023-10-05T13:04:45.519Z,2.78
2023-10-05T13:07:18.141Z,2.83
2023-10-05T13:09:45.288Z,3.08
2023-10-05T13:12:15.683Z,2.80
2023-10-05T13:14:42.337Z,2.33
2023-10-05T13:17:13.709Z,2.50
2023-10-05T13:19:40.969Z,2.30
2023-10-05T13:22:07.906Z,2.67
2023-10-05T13:24:35.381Z,2.35
2023-10-05T13:27:02.803Z,2.70
2023-10-05T13:29:29.716Z,2.60
2023-10-05T13:31:57.423Z,2.40
2023-10-05T13:34:28.819Z,2.20
2023-10-05T13:36:56.142Z,2.38
2023-10-05T13:39:23.060Z,2.57
2023-10-05T13:42:01.396Z,2.60
2023-10-05T13:44:29.200Z,2.25
2023-10-05T13:46:57.084Z,2.40
2023-10-05T13:49:29.838Z,2.42
2023-10-05T13:51:58.470Z,2.40
2023-10-05T13:54:25.158Z,2.28
2023-10-05T13:56:52.778Z,2.22
2023-10-05T13:59:22.405Z,2.30
2023-10-05T14:01:54.083Z,2.17
2023-10-05T14:04:22.092Z,2.00
2023-10-05T14:06:50.206Z,2.00
2023-10-05T14:09:17.518Z,1.90
2023-10-05T14:11:44.711Z,1.83
2023-10-05T14:14:12.702Z,2.05
2023-10-05T14:16:50.432Z,2.17
2023-10-05T14:19:19.094Z,1.85
2023-10-05T14:21:46.235Z,2.35
2023-10-05T14:24:14.453Z,2.92
2023-10-05T14:26:45.919Z,4.82
2023-10-05T14:29:13.685Z,7.80
2023-10-05T14:31:40.627Z,14.43
2023-10-05T14:34:10.370Z,21.48
2023-10-05T14:36:37.289Z,22.17
2023-10-05T14:39:22.050Z,26.58
2023-10-05T14:41:56.099Z,33.13
2023-10-05T14:44:24.343Z,35.67
2023-10-05T14:46:52.678Z,40.83
2023-10-05T14:49:22.822Z,37.05
2023-10-05T14:51:53.629Z,37.58
2023-10-05T14:54:23.187Z,38.57
2023-10-05T14:56:50.736Z,43.00
2023-10-05T14:59:17.973Z,44.33
2023-10-05T15:01:47.020Z,45.28
2023-10-05T15:04:14.625Z,45.97
2023-10-05T15:06:41.432Z,47.67
2023-10-05T15:09:08.280Z,47.88
2023-10-05T15:11:35.382Z,47.92
2023-10-05T15:14:02.163Z,49.58
2023-10-05T15:16:29.111Z,47.55
2023-10-05T15:18:56.069Z,46.13
2023-10-05T15:21:24.022Z,45.13
2023-10-05T15:23:50.670Z,44.53
2023-10-05T15:26:18.394Z,43.08
2023-10-05T15:28:45.281Z,43.92
2023-10-05T15:31:12.384Z,42.93
2023-10-05T15:33:39.350Z,42.00
2023-10-05T15:36:06.476Z,42.55
2023-10-05T15:38:35.216Z,40.47
2023-10-05T15:41:05.281Z,40.75
2023-10-05T15:43:33.083Z,38.93
2023-10-05T15:46:01.504Z,38.08
2023-10-05T15:48:28.748Z,36.40
2023-10-05T15:50:57.327Z,36.13
2023-10-05T15:53:24.262Z,32.95
2023-10-05T15:55:53.091Z,30.67
2023-10-05T15:58:20.205Z,18.80
2023-10-05T16:00:46.987Z,13.82
2023-10-05T16:03:15.589Z,12.95
2023-10-05T16:05:44.190Z,14.60
2023-10-05T16:08:13.106Z,12.17
2023-10-05T16:10:40.606Z,13.63
2023-10-05T16:13:12.125Z,9.15
2023-10-05T16:15:40.596Z,7.00
2023-10-05T16:18:12.638Z,6.68
2023-10-05T16:20:42.108Z,5.53
2023-10-05T16:23:11.932Z,5.57
2023-10-05T16:25:40.925Z,6.00
2023-10-05T16:28:09.109Z,5.93
2023-10-05T16:30:36.938Z,5.53
2023-10-05T16:33:06.526Z,5.40
2023-10-05T16:35:34.508Z,5.10
2023-10-05T16:38:01.365Z,4.85
2023-10-05T16:40:30.359Z,5.25
2023-10-05T16:42:59.146Z,4.88
2023-10-05T16:45:26.680Z,4.80
2023-10-05T16:47:58.219Z,4.80
2023-10-05T16:50:27.316Z,5.00
2023-10-05T16:52:55.415Z,4.95
2023-10-05T16:55:22.873Z,4.47
2023-10-05T16:57:52.329Z,5.27
2023-10-05T17:00:24.276Z,3.95
2023-10-05T17:02:53.027Z,4.50
2023-10-05T17:05:23.563Z,4.20
2023-10-05T17:07:57.664Z,4.20
2023-10-05T17:10:25.435Z,3.90
2023-10-05T17:12:53.036Z,3.80
2023-10-05T17:15:25.727Z,3.80
2023-10-05T17:17:54.712Z,3.58
2023-10-05T17:20:22.956Z,3.78
2023-10-05T17:22:50.979Z,3.17
2023-10-05T17:25:18.486Z,3.58
2023-10-05T17:27:45.604Z,3.45
2023-10-05T17:30:15.173Z,3.58
2023-10-05T17:32:48.068Z,3.20
2023-10-05T17:35:23.068Z,3.60
2023-10-05T17:37:52.034Z,3.30
2023-10-05T17:40:20.260Z,3.70
2023-10-05T17:42:47.293Z,2.90
2023-10-05T17:45:14.025Z,3.30
2023-10-05T17:47:40.854Z,3.10
2023-10-05T17:50:09.304Z,3.08
2023-10-05T17:52:36.175Z,2.78
2023-10-05T17:55:03.046Z,2.88
2023-10-05T17:57:29.873Z,2.85
2023-10-05T17:59:56.597Z,2.43
2023-10-05T18:02:23.617Z,2.50
2023-10-05T18:04:50.502Z,2.78
2023-10-05T18:07:18.471Z,2.70
2023-10-05T18:09:45.293Z,2.65
2023-10-05T18:12:14.207Z,2.77
2023-10-05T18:14:41.133Z,2.70
2023-10-05T18:17:09.486Z,2.85
2023-10-05T18:19:37.767Z,2.85
2023-10-05T18:22:05.374Z,2.95
2023-10-05T18:24:32.192Z,2.50
2023-10-05T18:26:58.852Z,2.47
2023-10-05T18:29:25.812Z,2.53
2023-10-05T18:31:52.739Z,2.40
2023-10-05T18:34:19.487Z,2.67
2023-10-05T18:36:46.182Z,2.70
2023-10-05T18:39:17.115Z,3.10
2023-10-05T18:41:43.906Z,2.10
2023-10-05T18:44:10.789Z,2.65
2023-10-05T18:46:37.978Z,2.38
2023-10-05T18:49:08.757Z,2.30
2023-10-05T18:51:37.726Z,2.50
2023-10-05T18:54:04.913Z,2.30
2023-10-05T18:56:32.108Z,2.17
2023-10-05T18:59:01.351Z,2.40
2023-10-05T19:01:28.163Z,2.07
2023-10-05T19:03:54.850Z,2.15
2023-10-05T19:06:21.845Z,2.40
2023-10-05T19:08:48.785Z,2.25
2023-10-05T19:11:17.119Z,2.03
2023-10-05T19:13:45.064Z,2.13
2023-10-05T19:16:12.554Z,2.00
2023-10-05T19:18:39.724Z,1.80
2023-10-05T19:21:12.139Z,1.80
2023-10-05T19:23:39.737Z,1.60
2023-10-05T19:26:06.650Z,1.70
2023-10-05T19:28:33.800Z,1.98
2023-10-05T19:31:02.717Z,1.77
2023-10-05T19:33:29.732Z,1.83
2023-10-05T19:35:56.398Z,1.90
2023-10-05T19:38:23.557Z,2.07
2023-10-05T19:40:50.575Z,1.90
2023-10-05T19:43:17.416Z,1.90
2023-10-05T19:45:44.219Z,1.70
2023-10-05T19:48:11.995Z,1.85
2023-10-05T19:50:40.253Z,1.87
2023-10-05T19:53:07.366Z,1.80
2023-10-05T19:55:34.466Z,1.70
2023-10-05T19:58:01.453Z,1.88
2023-10-05T20:00:28.710Z,1.67
2023-10-05T20:02:55.960Z,2.20
2023-10-05T20:05:24.729Z,2.72
2023-10-05T20:07:57.695Z,3.00
2023-10-05T20:10:30.437Z,2.88
2023-10-05T20:12:57.163Z,3.00
2023-10-05T20:15:24.018Z,2.90
2023-10-05T20:17:51.114Z,2.63
2023-10-05T20:20:18.848Z,2.83
2023-10-05T20:22:45.650Z,2.90
2023-10-05T20:25:12.625Z,2.53
2023-10-05T20:27:39.579Z,2.70
2023-10-05T20:30:12.926Z,2.70
2023-10-05T20:32:40.177Z,2.35
2023-10-05T20:35:08.537Z,2.40
2023-10-05T20:37:35.174Z,2.30
2023-10-05T20:40:03.174Z,2.37
2023-10-05T20:42:29.959Z,2.50
2023-10-05T20:44:56.688Z,2.40
2023-10-05T20:47:23.580Z,2.00
2023-10-05T20:49:50.297Z,2.30
2023-10-05T20:52:17.043Z,2.30
2023-10-05T20:54:43.757Z,2.30
2023-10-05T20:57:10.439Z,2.53
2023-10-05T20:59:37.110Z,1.90
2023-10-05T21:02:04.195Z,2.30
2023-10-05T21:04:35.022Z,2.13
2023-10-05T21:07:02.498Z,2.00
2023-10-05T21:09:29.458Z,2.05
2023-10-05T21:11:56.475Z,2.22
2023-10-05T21:14:23.867Z,2.10
2023-10-05T21:16:51.551Z,2.00
2023-10-05T21:19:18.547Z,2.10
2023-10-05T21:21:45.783Z,2.00
2023-10-05T21:24:12.568Z,2.42
2023-10-05T21:26:40.124Z,2.00
2023-10-05T21:29:08.089Z,2.20
2023-10-05T21:31:35.403Z,2.00
2023-10-05T21:34:02.874Z,1.73
2023-10-05T21:36:30.116Z,1.80
2023-10-05T21:38:57.192Z,1.90
2023-10-05T21:41:24.050Z,1.73
2023-10-05T21:43:50.951Z,1.90
2023-10-05T21:46:19.593Z,1.77
2023-10-05T21:48:46.817Z,1.90
2023-10-05T21:51:14.845Z,2.05
2023-10-05T21:53:42.449Z,2.20
2023-10-05T21:56:10.207Z,2.28
2023-10-05T21:58:36.896Z,1.98
2023-10-05T22:01:04.362Z,1.90
2023-10-05T22:03:31.245Z,1.73
2023-10-05T22:05:58.149Z,1.70
2023-10-05T22:08:25.306Z,1.73
2023-10-05T22:10:52.172Z,1.60
2023-10-05T22:13:19.023Z,1.60
2023-10-05T22:15:45.947Z,1.70
2023-10-05T22:18:13.184Z,1.77
2023-10-05T22:20:41.607Z,1.90
2023-10-05T22:23:10.310Z,1.55
2023-10-05T22:25:39.057Z,1.80
2023-10-05T22:28:07.459Z,1.70
2023-10-05T22:30:35.521Z,1.60
2023-10-05T22:33:02.494Z,1.40
2023-10-05T22:35:29.201Z,1.40
2023-10-05T22:37:55.939Z,1.45
2023-10-05T22:40:22.804Z,1.60
2023-10-05T22:42:49.468Z,1.20
2023-10-05T22:45:16.090Z,1.40
2023-10-05T22:47:42.798Z,1.27
2023-10-05T22:50:09.797Z,1.10
2023-10-05T22:52:37.205Z,1.27
2023-10-05T22:55:04.726Z,1.50
2023-10-05T22:57:31.581Z,1.80
2023-10-05T22:59:58.296Z,1.58
2023-10-05T23:17:40.144Z,1.23
2023-10-05T23:20:25.218Z,1.60
2023-10-05T23:22:53.288Z,1.53
2023-10-05T23:25:20.851Z,1.50
2023-10-05T23:27:49.516Z,1.40
2023-10-05T23:48:56.544Z,1.25
2023-10-05T23:51:23.356Z,1.23
2023-10-05T23:53:50.037Z,1.40
2023-10-05T23:56:17.940Z,1.25
2023-10-05T23:58:46.387Z,1.20
